createdAt,value
2022-08-07T00:02:35.557Z,5.88
2022-08-07T00:04:15.406Z,5.32
2022-08-07T00:06:51.667Z,5.38
2022-08-07T00:09:26.638Z,5.45
2022-08-07T00:12:00.765Z,5.45
2022-08-07T00:14:31.647Z,6.13
2022-08-07T00:17:01.914Z,6.20
2022-08-07T00:20:01.532Z,5.63
2022-08-07T00:22:24.361Z,5.47
2022-08-07T00:25:15.813Z,5.68
2022-08-07T00:27:53.305Z,5.68
2022-08-07T00:30:27.083Z,6.15
2022-08-07T00:32:59.357Z,6.18
2022-08-07T00:35:29.700Z,5.60
2022-08-07T00:37:59.343Z,6.32
2022-08-07T00:40:36.388Z,5.72
2022-08-07T00:43:14.058Z,5.70
2022-08-07T00:45:59.277Z,6.03
2022-08-07T00:48:31.011Z,5.85
2022-08-07T00:51:01.198Z,5.68
2022-08-07T00:53:39.426Z,5.68
2022-08-07T00:56:17.332Z,5.85
2022-08-07T00:58:46.747Z,5.60
2022-08-07T01:03:55.738Z,5.55
2022-08-07T01:06:26.652Z,5.63
2022-08-07T01:08:56.186Z,5.97
2022-08-07T01:12:10.297Z,6.30
2022-08-07T01:14:15.451Z,5.65
2022-08-07T01:16:46.829Z,5.63
2022-08-07T01:19:19.972Z,5.55
2022-08-07T01:21:53.481Z,5.95
2022-08-07T01:24:30.713Z,6.00
2022-08-07T01:27:00.995Z,5.82
2022-08-07T01:29:34.116Z,5.68
2022-08-07T01:32:05.197Z,5.75
2022-08-07T01:34:35.745Z,6.75
2022-08-07T01:37:17.276Z,6.55
2022-08-07T01:39:48.513Z,5.82
2022-08-07T01:42:55.104Z,6.22
2022-08-07T01:45:33.151Z,5.65
2022-08-07T01:48:20.951Z,6.03
2022-08-07T01:51:24.727Z,6.43
2022-08-07T01:54:09.534Z,6.05
2022-08-07T01:56:53.266Z,6.25
2022-08-07T01:59:31.021Z,6.83
2022-08-07T02:02:06.475Z,6.38
2022-08-07T02:04:55.691Z,7.25
2022-08-07T02:07:35.904Z,6.05
2022-08-07T02:10:14.330Z,6.13
2022-08-07T02:12:46.416Z,6.57
2022-08-07T02:15:26.370Z,6.78
2022-08-07T02:17:57.562Z,6.80
2022-08-07T02:20:30.502Z,6.03
2022-08-07T02:23:02.355Z,6.32
2022-08-07T02:26:32.365Z,6.57
2022-08-07T02:28:25.587Z,5.88
2022-08-07T02:30:59.537Z,5.82
2022-08-07T02:34:01.878Z,6.25
2022-08-07T02:36:29.775Z,6.25
2022-08-07T02:39:16.058Z,6.63
2022-08-07T02:41:54.195Z,6.07
2022-08-07T02:44:27.635Z,6.03
2022-08-07T02:47:04.953Z,6.20
2022-08-07T02:49:58.784Z,6.28
2022-08-07T02:52:40.420Z,5.80
2022-08-07T02:55:28.537Z,5.93
2022-08-07T02:58:13.632Z,5.95
2022-08-07T03:00:47.425Z,6.45
2022-08-07T03:03:22.621Z,6.35
2022-08-07T03:05:54.966Z,6.68
2022-08-07T03:11:00.956Z,6.38
2022-08-07T03:13:39.288Z,6.47
2022-08-07T03:16:23.021Z,6.25
2022-08-07T03:19:00.368Z,6.60
2022-08-07T03:21:32.820Z,6.00
2022-08-07T03:24:21.038Z,6.85
2022-08-07T03:26:58.587Z,6.35
2022-08-07T03:29:46.078Z,6.13
2022-08-07T03:32:34.352Z,5.70
2022-08-07T03:35:18.462Z,6.05
2022-08-07T03:38:04.728Z,6.65
2022-08-07T03:40:36.486Z,6.25
2022-08-07T03:43:14.444Z,6.30
2022-08-07T03:45:49.733Z,6.45
2022-08-07T03:48:22.630Z,6.18
2022-08-07T03:50:55.978Z,6.28
2022-08-07T03:54:05.932Z,6.10
2022-08-07T03:56:33.328Z,5.97
2022-08-07T03:59:09.636Z,5.90
2022-08-07T04:01:45.790Z,5.75
2022-08-07T04:04:19.538Z,5.93
2022-08-07T04:06:52.895Z,6.47
2022-08-07T04:09:24.554Z,5.70
2022-08-07T04:12:24.397Z,5.93
2022-08-07T04:14:49.208Z,6.65
2022-08-07T04:17:20.838Z,6.50
2022-08-07T04:20:12.396Z,5.53
2022-08-07T04:22:53.553Z,5.53
2022-08-07T04:25:24.066Z,6.07
2022-08-07T04:28:00.296Z,6.82
2022-08-07T04:30:35.899Z,6.70
2022-08-07T04:33:21.805Z,6.03
2022-08-07T04:35:53.265Z,6.22
2022-08-07T04:38:26.697Z,5.90
2022-08-07T04:40:56.796Z,6.47
2022-08-07T04:44:10.199Z,6.28
2022-08-07T04:46:51.323Z,6.30
2022-08-07T04:49:38.417Z,5.97
2022-08-07T04:54:58.069Z,5.70
2022-08-07T04:58:14.766Z,6.43
2022-08-07T05:01:15.779Z,6.05
2022-08-07T05:04:07.158Z,5.50
2022-08-07T05:06:51.504Z,5.88
2022-08-07T05:09:46.206Z,6.10
2022-08-07T05:12:30.449Z,6.18
2022-08-07T05:15:23.588Z,6.50
2022-08-07T05:18:09.151Z,6.55
2022-08-07T05:20:44.351Z,6.40
2022-08-07T05:23:23.174Z,5.97
2022-08-07T05:26:11.524Z,6.28
2022-08-07T05:28:46.667Z,6.90
2022-08-07T05:31:24.193Z,6.38
2022-08-07T05:34:05.884Z,5.85
2022-08-07T05:36:49.029Z,5.43
2022-08-07T05:40:18.070Z,5.80
2022-08-07T05:42:34.947Z,5.88
2022-08-07T05:45:14.594Z,5.75
2022-08-07T05:48:01.132Z,6.35
2022-08-07T05:50:34.375Z,6.20
2022-08-07T05:53:04.394Z,6.13
2022-08-07T05:56:02.819Z,6.47
2022-08-07T05:58:36.126Z,6.38
2022-08-07T06:01:10.791Z,6.00
2022-08-07T06:03:56.598Z,6.53
2022-08-07T06:06:30.006Z,7.38
2022-08-07T06:09:09.902Z,7.25
2022-08-07T06:11:42.751Z,6.07
2022-08-07T06:14:20.899Z,6.53
2022-08-07T06:16:57.110Z,6.68
2022-08-07T06:19:51.778Z,6.93
2022-08-07T06:22:27.833Z,6.65
2022-08-07T06:25:11.492Z,5.95
2022-08-07T06:28:00.372Z,6.50
2022-08-07T06:30:37.956Z,6.47
2022-08-07T06:33:16.159Z,6.57
2022-08-07T06:36:06.817Z,6.22
2022-08-07T06:38:58.673Z,6.00
2022-08-07T06:42:02.440Z,6.13
2022-08-07T06:44:51.179Z,6.38
2022-08-07T06:47:22.140Z,6.05
2022-08-07T06:49:58.426Z,5.97
2022-08-07T06:52:37.866Z,6.13
2022-08-07T06:55:33.325Z,6.35
2022-08-07T06:58:12.672Z,6.18
2022-08-07T07:00:52.928Z,6.30
2022-08-07T07:03:40.095Z,6.10
2022-08-07T07:06:11.225Z,5.85
2022-08-07T07:08:48.815Z,6.32
2022-08-07T07:12:08.389Z,6.10
2022-08-07T07:14:10.149Z,6.82
2022-08-07T07:16:49.767Z,6.37
2022-08-07T07:19:57.052Z,5.90
2022-08-07T07:22:37.000Z,6.25
2022-08-07T07:26:32.175Z,6.28
2022-08-07T07:28:29.852Z,6.38
2022-08-07T07:31:05.061Z,6.15
2022-08-07T07:33:38.486Z,6.45
2022-08-07T07:36:13.441Z,6.07
2022-08-07T07:38:46.250Z,6.50
2022-08-07T07:41:17.741Z,6.32
2022-08-07T07:44:14.533Z,6.07
2022-08-07T07:46:55.729Z,6.85
2022-08-07T07:50:33.398Z,6.40
2022-08-07T07:52:18.616Z,6.88
2022-08-07T07:54:50.680Z,6.38
2022-08-07T07:57:44.108Z,5.85
2022-08-07T08:00:15.076Z,6.13
2022-08-07T08:04:06.004Z,5.90
2022-08-07T08:06:06.730Z,6.07
2022-08-07T08:08:42.150Z,6.43
2022-08-07T08:11:16.153Z,6.00
2022-08-07T08:13:53.910Z,6.63
2022-08-07T08:16:35.868Z,6.75
2022-08-07T08:19:18.170Z,7.18
2022-08-07T08:22:13.393Z,6.20
2022-08-07T08:25:24.674Z,6.80
2022-08-07T08:27:55.926Z,6.50
2022-08-07T08:30:25.982Z,5.78
2022-08-07T08:32:57.355Z,6.10
2022-08-07T08:35:28.856Z,6.30
2022-08-07T08:38:09.986Z,6.40
2022-08-07T08:40:58.481Z,6.22
2022-08-07T08:43:43.263Z,5.88
2022-08-07T08:46:32.585Z,5.78
2022-08-07T08:49:46.902Z,6.55
2022-08-07T08:52:53.626Z,6.63
2022-08-07T08:55:53.891Z,6.07
2022-08-07T08:58:43.987Z,5.78
2022-08-07T09:01:21.589Z,5.80
2022-08-07T09:04:25.917Z,5.22
2022-08-07T09:07:27.134Z,5.35
2022-08-07T09:10:29.006Z,6.03
2022-08-07T09:13:14.859Z,5.38
2022-08-07T09:16:25.160Z,5.50
2022-08-07T09:19:07.063Z,5.38
2022-08-07T09:24:28.695Z,5.25
2022-08-07T09:25:38.657Z,5.10
2022-08-07T09:32:17.150Z,5.40
2022-08-07T09:34:55.542Z,5.22
2022-08-07T09:37:48.384Z,5.78
2022-08-07T09:40:35.805Z,5.50
2022-08-07T09:44:05.887Z,5.57
2022-08-07T09:47:51.948Z,6.00
2022-08-07T09:50:19.012Z,5.20
2022-08-07T09:53:14.510Z,5.18
2022-08-07T09:56:06.606Z,4.93
2022-08-07T09:58:42.189Z,5.47
2022-08-07T10:01:51.524Z,5.10
2022-08-07T10:04:52.937Z,5.13
2022-08-07T10:07:52.220Z,4.65
2022-08-07T10:11:17.121Z,5.10
2022-08-07T10:14:00.686Z,4.57
2022-08-07T10:16:48.345Z,4.88
2022-08-07T10:19:55.586Z,4.95
2022-08-07T10:22:50.823Z,5.32
2022-08-07T10:25:24.345Z,5.25
2022-08-07T10:28:37.923Z,5.53
2022-08-07T10:31:50.765Z,4.93
2022-08-07T10:34:50.827Z,4.68
2022-08-07T10:38:00.655Z,5.00
2022-08-07T10:40:24.170Z,5.30
2022-08-07T10:43:09.880Z,5.10
2022-08-07T10:45:57.483Z,5.00
2022-08-07T10:48:58.155Z,4.80
2022-08-07T10:52:01.590Z,5.05
2022-08-07T10:54:41.175Z,4.97
2022-08-07T10:57:56.108Z,5.40
2022-08-07T11:00:39.751Z,5.22
2022-08-07T11:03:17.403Z,5.15
2022-08-07T11:06:08.563Z,4.70
2022-08-07T11:08:56.336Z,4.50
2022-08-07T11:11:39.838Z,4.80
2022-08-07T11:14:59.759Z,4.40
2022-08-07T11:17:43.430Z,4.35
2022-08-07T11:20:24.918Z,5.10
2022-08-07T11:23:09.112Z,4.83
2022-08-07T11:26:16.326Z,4.38
2022-08-07T11:28:55.576Z,4.68
2022-08-07T11:31:35.500Z,4.82
2022-08-07T11:34:24.893Z,5.10
2022-08-07T11:37:03.117Z,4.53
2022-08-07T11:40:00.234Z,5.13
2022-08-07T11:42:59.052Z,4.65
2022-08-07T11:45:53.281Z,4.93
2022-08-07T11:49:50.751Z,5.22
2022-08-07T11:52:29.067Z,5.13
2022-08-07T11:56:09.274Z,5.13
2022-08-07T11:58:33.165Z,4.82
2022-08-07T12:04:12.828Z,5.43
2022-08-07T12:07:20.399Z,4.85
2022-08-07T12:10:09.494Z,5.65
2022-08-07T12:13:35.571Z,5.35
2022-08-07T12:16:28.884Z,5.20
2022-08-07T12:18:58.220Z,5.55
2022-08-07T12:22:37.368Z,5.40
2022-08-07T12:25:17.899Z,5.30
2022-08-07T12:28:11.926Z,5.05
2022-08-07T12:30:46.778Z,4.90
2022-08-07T12:33:28.053Z,5.30
2022-08-07T12:36:02.372Z,5.38
2022-08-07T12:38:42.844Z,5.57
2022-08-07T12:41:16.426Z,5.57
2022-08-07T12:44:04.583Z,5.40
2022-08-07T12:46:55.669Z,5.35
2022-08-07T12:50:33.929Z,5.90
2022-08-07T12:53:19.186Z,5.97
2022-08-07T12:56:03.588Z,5.50
2022-08-07T12:58:40.511Z,5.40
2022-08-07T13:01:50.664Z,5.93
2022-08-07T13:05:01.724Z,5.30
2022-08-07T13:08:14.336Z,5.15
2022-08-07T13:11:26.844Z,5.43
2022-08-07T13:14:29.211Z,5.82
2022-08-07T13:17:40.871Z,5.90
2022-08-07T13:20:21.691Z,5.35
2022-08-07T13:24:00.178Z,6.38
2022-08-07T13:26:08.269Z,6.93
2022-08-07T13:28:58.281Z,7.00
2022-08-07T13:31:46.033Z,6.47
2022-08-07T13:34:50.811Z,6.82
2022-08-07T13:38:04.511Z,6.65
2022-08-07T13:40:42.293Z,6.50
2022-08-07T13:43:16.130Z,7.03
2022-08-07T13:46:11.416Z,5.50
2022-08-07T13:48:58.273Z,5.22
2022-08-07T13:52:22.662Z,4.80
2022-08-07T13:54:29.497Z,4.75
2022-08-07T13:57:03.824Z,4.70
2022-08-07T13:59:34.254Z,4.18
2022-08-07T14:02:15.362Z,4.10
2022-08-07T14:04:50.179Z,4.55
2022-08-07T14:07:29.350Z,4.57
2022-08-07T14:10:02.035Z,4.60
2022-08-07T14:12:56.063Z,4.22
2022-08-07T14:15:35.321Z,4.60
2022-08-07T14:18:28.446Z,4.35
2022-08-07T14:21:21.071Z,3.90
2022-08-07T14:24:51.397Z,4.38
2022-08-07T14:28:16.908Z,5.55
2022-08-07T14:30:52.353Z,8.43
2022-08-07T14:33:23.496Z,8.60
2022-08-07T14:35:57.422Z,8.82
2022-08-07T14:38:31.671Z,8.32
2022-08-07T14:41:12.414Z,8.70
2022-08-07T14:46:38.136Z,8.45
2022-08-07T14:49:56.649Z,8.68
2022-08-07T14:52:12.768Z,9.57
2022-08-07T14:54:45.062Z,8.98
2022-08-07T14:57:19.669Z,8.60
2022-08-07T15:00:06.125Z,8.80
2022-08-07T15:02:39.448Z,8.07
2022-08-07T15:05:19.988Z,8.30
2022-08-07T15:07:51.763Z,8.00
2022-08-07T15:10:58.731Z,7.72
2022-08-07T15:16:33.600Z,7.82
2022-08-07T15:19:07.151Z,8.15
2022-08-07T15:21:59.462Z,7.60
2022-08-07T15:27:29.089Z,7.72
2022-08-07T15:30:14.398Z,7.88
2022-08-07T15:33:01.184Z,7.60
2022-08-07T15:36:01.386Z,7.90
2022-08-07T15:38:33.164Z,8.15
2022-08-07T15:41:23.954Z,8.02
2022-08-07T15:44:15.405Z,10.38
2022-08-07T15:46:51.691Z,8.13
2022-08-07T15:50:05.252Z,8.45
2022-08-07T15:52:29.978Z,8.85
2022-08-07T15:55:03.417Z,9.40
2022-08-07T15:57:47.977Z,8.00
2022-08-07T16:00:31.503Z,9.05
2022-08-07T16:03:04.810Z,8.95
2022-08-07T16:05:34.876Z,8.95
2022-08-07T16:08:31.069Z,8.63
2022-08-07T16:11:27.170Z,8.27
2022-08-07T16:14:33.672Z,8.00
2022-08-07T16:18:02.918Z,7.50
2022-08-07T16:20:44.137Z,8.30
2022-08-07T16:24:09.126Z,7.80
2022-08-07T16:26:59.328Z,7.65
2022-08-07T16:30:10.316Z,7.60
2022-08-07T16:34:02.031Z,7.88
2022-08-07T16:37:02.044Z,8.02
2022-08-07T16:39:48.951Z,7.65
2022-08-07T16:42:49.429Z,7.87
2022-08-07T16:46:33.087Z,8.55
2022-08-07T16:49:10.465Z,8.13
2022-08-07T16:51:57.527Z,7.93
2022-08-07T16:55:08.522Z,7.63
2022-08-07T16:58:19.141Z,7.47
2022-08-07T17:01:07.841Z,6.85
2022-08-07T17:03:57.897Z,6.60
2022-08-07T17:07:10.164Z,6.63
2022-08-07T17:10:06.974Z,6.57
2022-08-07T17:13:04.471Z,5.45
2022-08-07T17:15:44.210Z,6.60
2022-08-07T17:18:40.058Z,6.15
2022-08-07T17:21:50.827Z,5.90
2022-08-07T17:24:35.230Z,5.63
2022-08-07T17:27:20.090Z,6.60
2022-08-07T17:30:15.686Z,6.65
2022-08-07T17:33:02.474Z,6.95
2022-08-07T17:35:55.128Z,6.78
2022-08-07T17:38:39.838Z,7.03
2022-08-07T17:42:02.859Z,7.75
2022-08-07T17:44:41.443Z,8.55
2022-08-07T17:47:54.078Z,9.50
2022-08-07T17:50:46.959Z,9.15
2022-08-07T17:54:02.236Z,9.60
2022-08-07T17:56:49.999Z,9.27
2022-08-07T17:59:50.444Z,11.75
2022-08-07T18:02:41.230Z,10.23
2022-08-07T18:06:01.558Z,9.77
2022-08-07T18:08:33.112Z,9.70
2022-08-07T18:12:06.914Z,11.18
2022-08-07T18:14:46.566Z,9.43
2022-08-07T18:18:39.834Z,9.35
2022-08-07T18:21:37.425Z,9.75
2022-08-07T18:24:36.097Z,9.75
2022-08-07T18:27:39.268Z,9.65
2022-08-07T18:30:32.389Z,9.77
2022-08-07T18:33:39.024Z,9.55
2022-08-07T18:36:44.154Z,10.13
2022-08-07T18:40:08.359Z,10.10
2022-08-07T18:43:10.747Z,11.23
2022-08-07T18:46:25.646Z,11.43
2022-08-07T18:50:05.245Z,11.05
2022-08-07T18:52:40.961Z,11.60
2022-08-07T18:55:40.905Z,11.82
2022-08-07T18:58:33.609Z,12.18
2022-08-07T19:02:17.300Z,11.43
2022-08-07T19:04:03.863Z,10.75
2022-08-07T19:07:34.561Z,11.80
2022-08-07T19:10:21.906Z,11.98
2022-08-07T19:13:21.768Z,10.95
2022-08-07T19:17:01.161Z,11.45
2022-08-07T19:19:13.195Z,10.82
2022-08-07T19:21:58.432Z,10.98
2022-08-07T19:24:48.000Z,11.35
2022-08-07T19:28:58.136Z,10.32
2022-08-07T19:31:05.748Z,10.40
2022-08-07T19:33:10.170Z,10.82
2022-08-07T19:35:42.697Z,10.90
2022-08-07T19:38:17.439Z,10.13
2022-08-07T19:40:50.230Z,10.43
2022-08-07T19:43:49.271Z,10.07
2022-08-07T19:46:17.937Z,10.25
2022-08-07T19:48:57.306Z,11.07
2022-08-07T19:51:51.853Z,10.25
2022-08-07T19:54:32.521Z,9.93
2022-08-07T19:58:03.204Z,10.20
2022-08-07T20:00:10.380Z,10.82
2022-08-07T20:02:53.478Z,10.57
2022-08-07T20:05:28.895Z,10.20
2022-08-07T20:08:02.317Z,9.73
2022-08-07T20:10:55.057Z,10.15
2022-08-07T20:13:32.102Z,10.00
2022-08-07T20:16:03.457Z,10.15
2022-08-07T20:18:34.775Z,10.23
2022-08-07T20:21:20.918Z,10.32
2022-08-07T20:24:00.447Z,11.75
2022-08-07T20:26:44.858Z,11.35
2022-08-07T20:29:47.658Z,12.07
2022-08-07T20:32:11.632Z,12.05
2022-08-07T20:34:53.107Z,11.52
2022-08-07T20:37:46.865Z,11.35
2022-08-07T20:40:33.148Z,12.45
2022-08-07T20:43:09.385Z,12.55
2022-08-07T20:46:27.636Z,12.10
2022-08-07T20:48:33.864Z,12.50
2022-08-07T20:51:04.293Z,13.57
2022-08-07T20:54:04.701Z,12.95
2022-08-07T20:56:30.439Z,13.50
2022-08-07T20:59:05.376Z,11.90
2022-08-07T21:01:45.289Z,11.70
2022-08-07T21:04:22.706Z,13.40
2022-08-07T21:06:56.870Z,12.25
2022-08-07T21:09:51.924Z,11.75
2022-08-07T21:12:30.806Z,11.07
2022-08-07T21:15:03.603Z,11.80
2022-08-07T21:18:09.149Z,11.35
2022-08-07T21:20:33.151Z,11.68
2022-08-07T21:23:09.083Z,11.60
2022-08-07T21:25:56.113Z,12.10
2022-08-07T21:28:49.097Z,12.73
2022-08-07T21:32:47.037Z,12.13
2022-08-07T21:35:11.208Z,11.52
2022-08-07T21:37:59.518Z,11.52
2022-08-07T21:40:38.966Z,11.48
2022-08-07T21:43:11.345Z,11.45
2022-08-07T21:46:08.429Z,11.32
2022-08-07T21:48:41.812Z,11.25
2022-08-07T21:51:19.770Z,11.05
2022-08-07T21:53:55.166Z,11.55
2022-08-07T21:56:49.296Z,11.48
2022-08-07T22:00:04.578Z,11.75
2022-08-07T22:02:44.851Z,11.50
2022-08-07T22:05:21.678Z,10.70
2022-08-07T22:08:06.769Z,10.77
2022-08-07T22:10:42.457Z,10.88
2022-08-07T22:13:14.579Z,11.73
2022-08-07T22:16:43.245Z,11.18
2022-08-07T22:18:52.410Z,11.27
2022-08-07T22:22:01.711Z,10.65
2022-08-07T22:25:08.253Z,11.52
2022-08-07T22:28:29.975Z,10.50
2022-08-07T22:30:57.172Z,11.52
2022-08-07T22:33:56.299Z,11.57
2022-08-07T22:36:55.900Z,10.57
2022-08-07T22:39:52.988Z,11.75
2022-08-07T22:42:52.451Z,11.30
2022-08-07T22:46:40.725Z,11.55
2022-08-07T22:49:06.527Z,10.88
2022-08-07T22:52:34.850Z,11.00
2022-08-07T22:55:22.557Z,10.98
2022-08-07T22:58:03.194Z,10.48
2022-08-07T23:01:08.427Z,10.57
2022-08-07T23:03:58.031Z,10.65
2022-08-07T23:06:55.281Z,10.93
2022-08-07T23:10:04.075Z,10.45
2022-08-07T23:12:56.705Z,10.45
2022-08-07T23:16:05.363Z,11.07
2022-08-07T23:19:19.446Z,10.10
2022-08-07T23:22:32.621Z,10.05
2022-08-07T23:25:38.923Z,11.40
2022-08-07T23:28:44.324Z,10.18
2022-08-07T23:34:19.026Z,10.38
2022-08-07T23:35:01.176Z,11.60
2022-08-07T23:38:00.331Z,11.75
2022-08-07T23:40:50.885Z,10.68
2022-08-07T23:43:37.917Z,12.20
2022-08-07T23:46:19.940Z,10.93
2022-08-07T23:49:15.396Z,10.85
2022-08-07T23:52:59.938Z,11.07
2022-08-07T23:55:10.371Z,11.00
2022-08-07T23:58:01.327Z,11.18
